createdAt,value
2017-06-10T04:55:35.764Z,28.87
2017-06-10T04:58:02.579Z,28.77
2017-06-10T05:00:29.372Z,26.80
2017-06-10T05:02:56.189Z,25.37
2017-06-10T05:05:22.961Z,27.43
2017-06-10T05:07:49.722Z,22.20
2017-06-10T05:10:16.531Z,24.57
2017-06-10T05:12:43.315Z,17.73
2017-06-10T05:15:10.104Z,21.70
2017-06-10T05:17:36.901Z,28.63
2017-06-10T05:20:03.679Z,23.80
2017-06-10T05:22:30.443Z,25.03
2017-06-10T05:24:57.241Z,18.37
2017-06-10T05:27:24.041Z,22.80
2017-06-10T05:29:50.816Z,28.83
2017-06-10T05:32:17.622Z,26.03
2017-06-10T05:34:44.409Z,28.93
2017-06-10T05:37:11.209Z,23.27
2017-06-10T05:39:37.999Z,26.33
2017-06-10T05:42:04.812Z,30.90
2017-06-10T05:44:31.571Z,21.03
2017-06-10T05:46:58.386Z,27.47
2017-06-10T05:49:25.182Z,23.03
2017-06-10T05:51:51.943Z,35.33
2017-06-10T05:54:18.739Z,34.50
2017-06-10T05:56:45.518Z,25.93
2017-06-10T05:59:12.267Z,27.77
2017-06-10T06:01:39.082Z,27.17
2017-06-10T06:04:05.869Z,23.40
2017-06-10T06:06:32.615Z,22.67
2017-06-10T06:08:59.437Z,23.63
2017-06-10T06:11:26.195Z,27.53
2017-06-10T06:13:53.002Z,26.03
2017-06-10T06:16:19.786Z,26.77
2017-06-10T06:18:46.558Z,23.27
2017-06-10T06:21:13.329Z,33.63
2017-06-10T06:23:40.148Z,18.77
2017-06-10T06:26:06.903Z,23.00
2017-06-10T06:28:33.678Z,21.83
2017-06-10T06:31:00.501Z,20.30
2017-06-10T06:33:27.251Z,22.53
2017-06-10T06:35:54.020Z,20.63
2017-06-10T06:38:20.803Z,18.00
2017-06-10T06:40:47.604Z,25.63
2017-06-10T06:43:14.373Z,23.70
2017-06-10T06:45:41.156Z,20.17
2017-06-10T06:48:07.920Z,13.63
2017-06-10T06:50:34.710Z,19.67
2017-06-10T06:53:01.591Z,16.63
2017-06-10T06:55:28.374Z,17.90
2017-06-10T06:57:55.128Z,15.73
2017-06-10T07:00:21.933Z,10.90
2017-06-10T07:02:48.713Z,17.37
2017-06-10T07:05:15.494Z,16.37
2017-06-10T07:07:42.309Z,11.23
2017-06-10T07:10:09.148Z,14.43
2017-06-10T07:12:35.923Z,17.93
2017-06-10T07:15:02.738Z,11.93
2017-06-10T07:17:29.503Z,14.27
2017-06-10T07:19:56.276Z,13.00
2017-06-10T07:22:23.090Z,15.30
2017-06-10T07:24:49.865Z,21.10
2017-06-10T07:27:16.637Z,10.50
2017-06-10T07:29:43.559Z,11.87
2017-06-10T07:32:10.403Z,22.73
2017-06-10T07:34:37.287Z,15.10
2017-06-10T07:37:04.184Z,8.13
2017-06-10T07:39:30.957Z,14.60
2017-06-10T07:41:57.838Z,17.17
2017-06-10T07:44:24.663Z,14.20
2017-06-10T07:46:51.511Z,13.43
2017-06-10T07:49:18.348Z,13.90
2017-06-10T07:51:45.162Z,13.80
2017-06-10T07:54:11.920Z,12.63
2017-06-10T07:56:38.709Z,10.80
2017-06-10T07:59:05.565Z,5.60
2017-06-10T08:01:32.349Z,11.17
2017-06-10T08:03:59.134Z,10.80
2017-06-10T08:06:25.930Z,10.33
2017-06-10T08:08:52.706Z,13.60
2017-06-10T08:11:19.464Z,9.50
2017-06-10T08:13:46.264Z,18.70
2017-06-10T08:16:13.055Z,16.93
2017-06-10T08:18:39.892Z,16.27
2017-06-10T08:21:06.713Z,13.00
2017-06-10T08:23:33.504Z,16.37
2017-06-10T08:26:00.320Z,12.53
2017-06-10T08:28:27.134Z,11.63
2017-06-10T08:30:53.975Z,19.70
2017-06-10T08:33:20.794Z,9.57
2017-06-10T08:35:47.733Z,8.20
2017-06-10T08:38:14.500Z,9.07
2017-06-10T08:40:41.374Z,9.00
2017-06-10T08:43:08.219Z,6.83
2017-06-10T08:45:35.072Z,11.23
2017-06-10T08:48:01.872Z,10.30
2017-06-10T08:50:28.691Z,12.93
2017-06-10T08:52:55.475Z,7.87
2017-06-10T08:55:22.250Z,5.37
2017-06-10T08:57:49.041Z,9.53
2017-06-10T09:00:15.829Z,6.90
2017-06-10T09:02:42.640Z,9.63
2017-06-10T09:05:09.418Z,7.90
2017-06-10T09:07:36.245Z,4.60
2017-06-10T09:10:03.061Z,8.77
2017-06-10T09:12:30.713Z,11.40
2017-06-10T09:14:57.463Z,12.87
2017-06-10T09:17:24.337Z,8.50
2017-06-10T09:19:51.154Z,6.53
2017-06-10T09:22:18.015Z,7.57
2017-06-10T09:24:45.016Z,10.93
2017-06-10T09:27:11.840Z,5.90
2017-06-10T09:29:38.616Z,5.37
2017-06-10T09:32:05.467Z,10.30
2017-06-10T09:34:32.311Z,9.80
2017-06-10T09:36:59.138Z,6.80
2017-06-10T09:39:25.968Z,19.73
2017-06-10T09:41:52.775Z,8.07
2017-06-10T09:44:19.577Z,10.47
2017-06-10T09:46:46.319Z,5.30
2017-06-10T09:49:13.178Z,5.77
2017-06-10T09:51:39.985Z,11.67
2017-06-10T09:54:23.564Z,16.43
2017-06-10T09:56:50.917Z,13.63
2017-06-10T09:59:17.695Z,6.83
2017-06-10T10:01:44.498Z,11.77
2017-06-10T10:06:49.554Z,9.97
2017-06-10T10:09:16.382Z,13.40
2017-06-10T10:11:43.144Z,6.27
2017-06-10T10:14:09.943Z,5.60
2017-06-10T10:16:36.730Z,10.37
2017-06-10T10:19:03.583Z,9.80
2017-06-10T10:21:30.386Z,5.50
2017-06-10T10:23:57.163Z,6.50
2017-06-10T10:26:23.950Z,7.20
2017-06-10T10:28:50.783Z,6.33
2017-06-10T10:31:17.562Z,55.67
2017-06-10T10:33:44.403Z,7.13
2017-06-10T10:36:11.220Z,8.50
2017-06-10T10:38:37.990Z,8.57
2017-06-10T10:41:04.790Z,8.00
2017-06-10T10:43:31.648Z,5.90
2017-06-10T10:45:58.404Z,5.83
2017-06-10T10:48:25.196Z,11.53
2017-06-10T10:50:52.017Z,6.53
2017-06-10T10:53:18.851Z,3.93
2017-06-10T10:55:45.689Z,4.77
2017-06-10T10:58:12.542Z,6.63
2017-06-10T11:00:39.319Z,9.60
2017-06-10T11:03:06.091Z,10.87
2017-06-10T11:05:32.938Z,8.40
2017-06-10T11:07:59.704Z,8.93
2017-06-10T11:10:26.535Z,12.50
2017-06-10T11:12:53.354Z,10.57
2017-06-10T11:15:20.129Z,6.50
2017-06-10T11:17:46.891Z,5.50
2017-06-10T11:20:13.675Z,9.90
2017-06-10T11:22:40.452Z,8.83
2017-06-10T11:25:07.213Z,5.63
2017-06-10T11:27:34.020Z,8.60
2017-06-10T11:30:00.779Z,6.23
2017-06-10T11:32:27.527Z,8.73
2017-06-10T11:34:54.334Z,8.23
2017-06-10T11:37:21.100Z,5.53
2017-06-10T11:39:47.869Z,9.47
2017-06-10T11:42:14.706Z,3.70
2017-06-10T11:44:41.469Z,7.63
2017-06-10T11:47:08.259Z,2.30
2017-06-10T11:49:35.104Z,5.40
2017-06-10T11:52:01.900Z,4.63
2017-06-10T11:54:28.719Z,11.90
2017-06-10T11:56:55.500Z,6.90
2017-06-10T11:59:22.270Z,6.73
2017-06-10T12:01:49.065Z,8.37
2017-06-10T12:04:15.835Z,3.10
2017-06-10T12:06:42.605Z,7.30
2017-06-10T12:09:09.362Z,2.97
2017-06-10T12:11:36.155Z,2.40
2017-06-10T12:14:02.951Z,15.73
2017-06-10T12:16:29.762Z,7.30
2017-06-10T12:18:56.571Z,6.50
2017-06-10T12:21:23.381Z,6.30
2017-06-10T12:23:50.217Z,4.60
2017-06-10T12:26:17.016Z,1.33
2017-06-10T12:28:43.788Z,4.50
2017-06-10T12:31:10.546Z,4.70
2017-06-10T12:33:37.451Z,4.20
2017-06-10T12:36:04.248Z,6.63
2017-06-10T12:38:31.008Z,7.63
2017-06-10T12:40:57.797Z,4.00
2017-06-10T12:43:24.557Z,10.47
2017-06-10T12:45:51.340Z,3.70
2017-06-10T12:48:18.135Z,3.63
2017-06-10T12:50:45.129Z,3.10
2017-06-10T12:53:11.948Z,5.43
2017-06-10T12:55:38.866Z,4.17
2017-06-10T12:58:05.635Z,2.80
2017-06-10T13:00:32.443Z,2.33
2017-06-10T13:02:59.232Z,3.30
2017-06-10T13:05:25.984Z,5.43
2017-06-10T13:07:52.746Z,2.43
2017-06-10T13:10:19.537Z,0.70
2017-06-10T13:12:46.294Z,5.20
2017-06-10T13:15:13.059Z,2.60
2017-06-10T13:17:39.843Z,3.10
2017-06-10T13:20:06.612Z,7.50
2017-06-10T13:22:33.355Z,1.63
2017-06-10T13:25:00.149Z,2.30
2017-06-10T13:27:26.904Z,1.83
2017-06-10T13:29:53.682Z,4.00
2017-06-10T13:32:20.486Z,2.17
2017-06-10T13:34:47.275Z,4.37
2017-06-10T13:37:14.028Z,4.17
2017-06-10T13:39:40.812Z,5.23
2017-06-10T13:42:07.590Z,2.90
2017-06-10T13:44:34.337Z,4.90
2017-06-10T13:47:01.121Z,1.03
2017-06-10T13:49:27.876Z,5.07
2017-06-10T13:51:54.647Z,1.43
2017-06-10T13:54:21.425Z,3.27
2017-06-10T13:56:48.163Z,2.30
2017-06-10T13:59:14.903Z,1.90
2017-06-10T14:01:41.706Z,4.03
2017-06-10T14:04:08.439Z,4.00
2017-06-10T14:06:35.221Z,4.10
2017-06-10T14:09:02.017Z,3.27
2017-06-10T14:11:28.790Z,1.90
2017-06-10T14:13:55.554Z,1.83
2017-06-10T14:16:22.351Z,5.20
2017-06-10T14:18:49.097Z,3.43
2017-06-10T14:21:15.859Z,3.20
2017-06-10T14:23:42.665Z,3.07
2017-06-10T14:26:09.426Z,3.70
2017-06-10T14:28:36.181Z,2.23
2017-06-10T14:31:02.959Z,9.93
2017-06-10T14:33:29.722Z,9.53
2017-06-10T14:35:56.466Z,4.00
2017-06-10T14:38:23.252Z,1.20
2017-06-10T14:40:50.013Z,2.40
2017-06-10T14:43:16.763Z,4.87
2017-06-10T14:45:43.929Z,4.50
2017-06-10T14:48:10.706Z,4.60
2017-06-10T14:50:37.490Z,3.30
2017-06-10T14:53:04.291Z,1.53
2017-06-10T14:55:31.045Z,3.90
2017-06-10T14:57:57.840Z,5.07
2017-06-10T15:00:24.637Z,2.10
2017-06-10T15:02:51.410Z,3.10
2017-06-10T15:05:18.183Z,3.27
2017-06-10T15:07:44.995Z,4.30
2017-06-10T15:10:11.762Z,1.67
2017-06-10T15:12:38.530Z,3.60
2017-06-10T15:15:05.326Z,3.03
2017-06-10T15:17:32.095Z,3.27
2017-06-10T15:19:58.943Z,3.93
2017-06-10T15:22:25.734Z,7.47
2017-06-10T15:24:52.502Z,2.00
2017-06-10T15:27:19.267Z,5.97
2017-06-10T15:29:46.069Z,1.93
2017-06-10T15:32:12.827Z,2.87
2017-06-10T15:34:39.617Z,6.43
2017-06-10T15:37:06.444Z,3.40
2017-06-10T15:39:33.213Z,7.33
2017-06-10T15:42:00.038Z,5.97
2017-06-10T15:44:26.842Z,5.40
2017-06-10T15:46:54.369Z,7.07
2017-06-10T15:49:21.170Z,6.67
2017-06-10T15:51:47.962Z,2.63
2017-06-10T15:54:14.734Z,3.10
2017-06-10T15:56:41.502Z,4.53
2017-06-10T15:59:08.320Z,2.47
2017-06-10T16:01:35.091Z,9.40
2017-06-10T16:04:01.853Z,3.30
2017-06-10T16:06:28.637Z,5.00
2017-06-10T16:08:55.457Z,5.33
2017-06-10T16:11:22.195Z,1.90
2017-06-10T16:13:49.025Z,5.93
2017-06-10T16:16:15.796Z,2.67
2017-06-10T16:18:42.560Z,5.60
2017-06-10T16:21:09.354Z,2.53
2017-06-10T16:23:36.126Z,5.63
2017-06-10T16:26:02.895Z,3.20
2017-06-10T16:28:29.697Z,5.07
2017-06-10T16:30:57.342Z,9.97
2017-06-10T16:33:24.164Z,5.07
2017-06-10T16:35:50.974Z,6.80
2017-06-10T16:38:17.752Z,4.07
2017-06-10T16:40:44.503Z,3.70
2017-06-10T16:43:11.318Z,6.40
2017-06-10T16:45:38.087Z,6.37
2017-06-10T16:48:04.885Z,5.37
2017-06-10T16:50:31.703Z,6.93
2017-06-10T16:52:58.466Z,3.80
2017-06-10T16:55:25.219Z,6.13
2017-06-10T16:57:52.030Z,5.20
2017-06-10T17:00:18.785Z,5.67
2017-06-10T17:02:45.559Z,5.20
2017-06-10T17:05:12.454Z,5.40
2017-06-10T17:07:39.252Z,8.47
2017-06-10T17:10:06.051Z,4.97
2017-06-10T17:12:32.865Z,8.33
2017-06-10T17:14:59.631Z,7.10
2017-06-10T17:17:26.466Z,11.03
2017-06-10T17:19:53.324Z,5.80
2017-06-10T17:22:20.106Z,6.57
2017-06-10T17:24:46.874Z,3.90
2017-06-10T17:27:13.932Z,4.87
2017-06-10T17:29:40.721Z,5.00
2017-06-10T17:32:07.560Z,7.50
2017-06-10T17:34:34.398Z,7.17
2017-06-10T17:37:01.240Z,15.83
2017-06-10T17:39:28.007Z,5.60
2017-06-10T17:41:54.813Z,2.77
2017-06-10T17:44:21.604Z,7.23
2017-06-10T17:46:48.379Z,7.73
2017-06-10T17:49:15.192Z,4.50
2017-06-10T17:51:41.962Z,8.10
2017-06-10T17:54:08.719Z,6.10
2017-06-10T17:56:35.530Z,6.03
2017-06-10T17:59:02.287Z,10.20
2017-06-10T18:01:29.053Z,4.83
2017-06-10T18:03:55.848Z,4.80
2017-06-10T18:06:22.641Z,7.37
2017-06-10T18:08:49.410Z,6.47
2017-06-10T18:11:16.226Z,4.70
2017-06-10T18:13:42.985Z,5.33
2017-06-10T18:16:09.782Z,5.47
2017-06-10T18:18:36.605Z,7.50
2017-06-10T18:21:03.431Z,17.13
2017-06-10T18:23:30.242Z,5.23
2017-06-10T18:26:02.707Z,7.87
2017-06-10T18:28:29.515Z,10.83
2017-06-10T18:31:11.187Z,6.73
2017-06-10T18:33:37.962Z,7.00
2017-06-10T18:36:04.756Z,4.60
2017-06-10T18:38:31.552Z,6.93
2017-06-10T18:40:58.353Z,8.07
2017-06-10T18:43:25.117Z,6.63
2017-06-10T18:45:51.969Z,10.13
2017-06-10T18:48:18.740Z,6.27
2017-06-10T18:50:45.530Z,5.47
2017-06-10T18:53:12.359Z,4.23
2017-06-10T18:55:39.154Z,12.13
2017-06-10T18:58:05.958Z,7.33
2017-06-10T19:00:32.786Z,9.03
2017-06-10T19:02:59.559Z,6.73
2017-06-10T19:05:26.354Z,4.23
2017-06-10T19:07:53.163Z,10.03
2017-06-10T19:10:19.919Z,5.23
2017-06-10T19:12:46.711Z,9.90
2017-06-10T19:15:13.530Z,6.13
2017-06-10T19:17:40.279Z,5.30
2017-06-10T19:20:07.021Z,8.90
2017-06-10T19:22:33.834Z,11.37
2017-06-10T19:25:00.581Z,8.30
2017-06-10T19:27:27.367Z,12.57
2017-06-10T19:29:54.179Z,7.47
2017-06-10T19:32:20.927Z,7.03
2017-06-10T19:34:47.698Z,7.07
2017-06-10T19:37:14.517Z,10.20
2017-06-10T19:39:41.326Z,9.53
2017-06-10T19:42:08.114Z,6.37
2017-06-10T19:44:34.932Z,7.97
2017-06-10T19:47:01.684Z,6.70
2017-06-10T19:49:28.477Z,5.60
2017-06-10T19:51:55.267Z,7.20
2017-06-10T19:54:22.025Z,13.50
2017-06-10T19:56:48.787Z,9.10
2017-06-10T19:59:15.640Z,9.37
2017-06-10T20:01:42.410Z,7.93
2017-06-10T20:04:09.178Z,11.60
2017-06-10T20:06:36.005Z,5.50
2017-06-10T20:09:02.839Z,9.03
2017-06-10T20:11:29.620Z,12.57
2017-06-10T20:13:56.850Z,11.07
2017-06-10T20:16:23.645Z,11.17
2017-06-10T20:18:50.415Z,8.73
2017-06-10T20:21:17.242Z,10.70
2017-06-10T20:23:44.062Z,8.67
2017-06-10T20:26:10.850Z,14.33
2017-06-10T20:28:37.746Z,10.50
2017-06-10T20:31:04.594Z,9.07
2017-06-10T20:33:31.393Z,5.37
2017-06-10T20:35:58.192Z,7.40
2017-06-10T20:38:24.988Z,10.30
2017-06-10T20:40:51.744Z,7.00
2017-06-10T20:43:18.559Z,9.40
2017-06-10T20:45:45.341Z,8.30
2017-06-10T20:48:12.641Z,8.03
2017-06-10T20:50:39.460Z,8.60
2017-06-10T20:53:06.215Z,9.20
2017-06-10T20:55:33.059Z,12.00
2017-06-10T20:57:59.895Z,11.67
2017-06-10T21:00:26.668Z,10.43
2017-06-10T21:02:53.442Z,7.07
2017-06-10T21:05:20.266Z,7.50
2017-06-10T21:07:47.073Z,8.03
2017-06-10T21:10:13.825Z,5.80
2017-06-10T21:12:40.670Z,7.00
2017-06-10T21:15:07.425Z,12.00
2017-06-10T21:17:34.187Z,7.20
2017-06-10T21:20:00.969Z,9.47
2017-06-10T21:22:27.720Z,9.00
2017-06-10T21:24:54.514Z,11.37
2017-06-10T21:27:21.351Z,14.00
2017-06-10T21:29:48.140Z,5.03
2017-06-10T21:32:14.900Z,15.80
2017-06-10T21:34:41.717Z,13.57
2017-06-10T21:37:08.478Z,9.27
2017-06-10T21:39:35.239Z,8.90
2017-06-10T21:42:02.046Z,9.33
2017-06-10T21:44:28.803Z,7.47
2017-06-10T21:46:55.586Z,8.50
2017-06-10T21:49:22.475Z,9.03
2017-06-10T21:51:49.258Z,7.23
2017-06-10T21:54:16.148Z,8.87
2017-06-10T21:56:42.990Z,9.40
2017-06-10T21:59:09.737Z,14.50
2017-06-10T22:01:36.484Z,13.33
2017-06-10T22:04:03.306Z,10.23
2017-06-10T22:06:30.127Z,7.13
2017-06-10T22:08:56.924Z,9.90
2017-06-10T22:11:23.807Z,9.37
2017-06-10T22:13:50.590Z,7.93
2017-06-10T22:16:17.392Z,8.67
2017-06-10T22:18:44.183Z,14.23
2017-06-10T22:21:10.954Z,13.40
